sensor_id;sensor_type;location;lat;lon;timestamp;pressure;altitude;pressure_sealevel;temperature
54746;BMP180;40640;48.130;11.356;2023-06-22T00:03:55;95769.00;;;23.50
54746;BMP180;40640;48.130;11.356;2023-06-22T00:08:03;95775.00;;;23.50
54746;BMP180;40640;48.130;11.356;2023-06-22T00:12:07;95761.00;;;23.40
54746;BMP180;40640;48.130;11.356;2023-06-22T00:16:10;95760.00;;;23.30
54746;BMP180;40640;48.130;11.356;2023-06-22T00:20:14;95760.00;;;23.30
54746;BMP180;40640;48.130;11.356;2023-06-22T00:24:18;95760.00;;;23.30
54746;BMP180;40640;48.130;11.356;2023-06-22T00:28:21;95762.00;;;23.20
54746;BMP180;40640;48.130;11.356;2023-06-22T00:32:24;95769.00;;;23.20
54746;BMP180;40640;48.130;11.356;2023-06-22T00:36:28;95755.00;;;23.20
54746;BMP180;40640;48.130;11.356;2023-06-22T00:40:32;95748.00;;;23.20
54746;BMP180;40640;48.130;11.356;2023-06-22T00:44:35;95749.00;;;23.10
54746;BMP180;40640;48.130;11.356;2023-06-22T00:48:38;95754.00;;;23.00
54746;BMP180;40640;48.130;11.356;2023-06-22T00:52:45;95737.00;;;22.90
54746;BMP180;40640;48.130;11.356;2023-06-22T00:56:48;95743.00;;;22.90
54746;BMP180;40640;48.130;11.356;2023-06-22T01:00:55;95738.00;;;22.80
54746;BMP180;40640;48.130;11.356;2023-06-22T01:05:01;95726.00;;;22.70
54746;BMP180;40640;48.130;11.356;2023-06-22T01:09:14;95730.00;;;22.60
54746;BMP180;40640;48.130;11.356;2023-06-22T01:13:23;95715.00;;;22.60
54746;BMP180;40640;48.130;11.356;2023-06-22T01:17:28;95723.00;;;22.60
54746;BMP180;40640;48.130;11.356;2023-06-22T01:21:32;95709.00;;;22.50
54746;BMP180;40640;48.130;11.356;2023-06-22T01:25:45;95705.00;;;22.50
54746;BMP180;40640;48.130;11.356;2023-06-22T01:29:51;95718.00;;;22.50
54746;BMP180;40640;48.130;11.356;2023-06-22T01:33:57;95701.00;;;22.40
54746;BMP180;40640;48.130;11.356;2023-06-22T01:38:01;95695.00;;;22.50
54746;BMP180;40640;48.130;11.356;2023-06-22T01:42:04;95693.00;;;22.40
54746;BMP180;40640;48.130;11.356;2023-06-22T01:46:09;95708.00;;;22.40
54746;BMP180;40640;48.130;11.356;2023-06-22T01:50:13;95720.00;;;22.40
54746;BMP180;40640;48.130;11.356;2023-06-22T01:54:16;95701.00;;;22.30
54746;BMP180;40640;48.130;11.356;2023-06-22T01:58:23;95703.00;;;22.30
54746;BMP180;40640;48.130;11.356;2023-06-22T02:02:33;95699.00;;;22.30
54746;BMP180;40640;48.130;11.356;2023-06-22T02:06:39;95706.00;;;22.30
54746;BMP180;40640;48.130;11.356;2023-06-22T02:10:45;95724.00;;;22.30
54746;BMP180;40640;48.130;11.356;2023-06-22T02:14:49;95708.00;;;22.30
54746;BMP180;40640;48.130;11.356;2023-06-22T02:18:54;95720.00;;;22.30
54746;BMP180;40640;48.130;11.356;2023-06-22T02:22:58;95718.00;;;22.20
54746;BMP180;40640;48.130;11.356;2023-06-22T02:27:02;95717.00;;;22.20
54746;BMP180;40640;48.130;11.356;2023-06-22T02:31:06;95727.00;;;22.20
54746;BMP180;40640;48.130;11.356;2023-06-22T02:35:11;95737.00;;;22.10
54746;BMP180;40640;48.130;11.356;2023-06-22T02:39:13;95734.00;;;22.10
54746;BMP180;40640;48.130;11.356;2023-06-22T02:43:18;95740.00;;;22.10
54746;BMP180;40640;48.130;11.356;2023-06-22T02:47:21;95742.00;;;22.00
54746;BMP180;40640;48.130;11.356;2023-06-22T02:51:26;95730.00;;;22.00
54746;BMP180;40640;48.130;11.356;2023-06-22T02:55:29;95726.00;;;22.00
54746;BMP180;40640;48.130;11.356;2023-06-22T02:59:33;95721.00;;;21.90
54746;BMP180;40640;48.130;11.356;2023-06-22T03:03:42;95727.00;;;21.90
54746;BMP180;40640;48.130;11.356;2023-06-22T03:07:47;95731.00;;;21.80
54746;BMP180;40640;48.130;11.356;2023-06-22T03:11:50;95731.00;;;21.80
54746;BMP180;40640;48.130;11.356;2023-06-22T03:15:55;95714.00;;;21.80
54746;BMP180;40640;48.130;11.356;2023-06-22T03:19:57;95708.00;;;21.70
54746;BMP180;40640;48.130;11.356;2023-06-22T03:24:02;95706.00;;;21.60
54746;BMP180;40640;48.130;11.356;2023-06-22T03:28:05;95706.00;;;21.60
54746;BMP180;40640;48.130;11.356;2023-06-22T03:32:08;95705.00;;;21.60
54746;BMP180;40640;48.130;11.356;2023-06-22T03:36:11;95723.00;;;21.60
54746;BMP180;40640;48.130;11.356;2023-06-22T03:40:15;95723.00;;;21.60
54746;BMP180;40640;48.130;11.356;2023-06-22T03:44:18;95721.00;;;21.60
54746;BMP180;40640;48.130;11.356;2023-06-22T03:48:21;95723.00;;;21.60
54746;BMP180;40640;48.130;11.356;2023-06-22T03:52:24;95716.00;;;21.50
54746;BMP180;40640;48.130;11.356;2023-06-22T03:56:28;95725.00;;;21.50
54746;BMP180;40640;48.130;11.356;2023-06-22T04:00:31;95727.00;;;21.50
54746;BMP180;40640;48.130;11.356;2023-06-22T04:04:34;95726.00;;;21.60
54746;BMP180;40640;48.130;11.356;2023-06-22T04:08:37;95739.00;;;21.60
54746;BMP180;40640;48.130;11.356;2023-06-22T04:12:41;95739.00;;;21.70
54746;BMP180;40640;48.130;11.356;2023-06-22T04:16:44;95734.00;;;21.70
54746;BMP180;40640;48.130;11.356;2023-06-22T04:20:47;95733.00;;;21.70
54746;BMP180;40640;48.130;11.356;2023-06-22T04:24:50;95727.00;;;21.80
54746;BMP180;40640;48.130;11.356;2023-06-22T04:28:55;95730.00;;;21.90
54746;BMP180;40640;48.130;11.356;2023-06-22T04:32:58;95730.00;;;21.90
54746;BMP180;40640;48.130;11.356;2023-06-22T04:37:02;95725.00;;;21.90
54746;BMP180;40640;48.130;11.356;2023-06-22T04:41:05;95722.00;;;21.90
54746;BMP180;40640;48.130;11.356;2023-06-22T04:45:09;95716.00;;;22.00
54746;BMP180;40640;48.130;11.356;2023-06-22T04:49:12;95718.00;;;22.10
54746;BMP180;40640;48.130;11.356;2023-06-22T04:53:15;95715.00;;;22.20
54746;BMP180;40640;48.130;11.356;2023-06-22T04:57:18;95721.00;;;22.40
54746;BMP180;40640;48.130;11.356;2023-06-22T05:01:22;95704.00;;;22.40
54746;BMP180;40640;48.130;11.356;2023-06-22T05:05:26;95716.00;;;22.50
54746;BMP180;40640;48.130;11.356;2023-06-22T05:09:29;95708.00;;;22.60
54746;BMP180;40640;48.130;11.356;2023-06-22T05:13:32;95700.00;;;22.70
54746;BMP180;40640;48.130;11.356;2023-06-22T05:17:37;95687.00;;;22.70
54746;BMP180;40640;48.130;11.356;2023-06-22T05:21:44;95685.00;;;22.70
54746;BMP180;40640;48.130;11.356;2023-06-22T05:25:47;95698.00;;;23.00
54746;BMP180;40640;48.130;11.356;2023-06-22T05:29:50;95691.00;;;23.10
54746;BMP180;40640;48.130;11.356;2023-06-22T05:33:55;95687.00;;;23.20
54746;BMP180;40640;48.130;11.356;2023-06-22T05:37:58;95697.00;;;23.50
54746;BMP180;40640;48.130;11.356;2023-06-22T05:42:01;95684.00;;;23.70
54746;BMP180;40640;48.130;11.356;2023-06-22T05:46:04;95678.00;;;24.10
54746;BMP180;40640;48.130;11.356;2023-06-22T05:50:09;95675.00;;;25.50
54746;BMP180;40640;48.130;11.356;2023-06-22T05:54:14;95690.00;;;27.00
54746;BMP180;40640;48.130;11.356;2023-06-22T05:58:19;95699.00;;;28.20
54746;BMP180;40640;48.130;11.356;2023-06-22T06:02:22;95707.00;;;28.80
54746;BMP180;40640;48.130;11.356;2023-06-22T06:06:26;95702.00;;;29.20
54746;BMP180;40640;48.130;11.356;2023-06-22T06:10:30;95689.00;;;29.80
54746;BMP180;40640;48.130;11.356;2023-06-22T06:14:34;95682.00;;;30.30
54746;BMP180;40640;48.130;11.356;2023-06-22T06:18:37;95673.00;;;30.30
54746;BMP180;40640;48.130;11.356;2023-06-22T06:22:41;95669.00;;;29.70
54746;BMP180;40640;48.130;11.356;2023-06-22T06:26:45;95665.00;;;28.70
54746;BMP180;40640;48.130;11.356;2023-06-22T06:30:48;95670.00;;;28.00
54746;BMP180;40640;48.130;11.356;2023-06-22T06:34:53;95670.00;;;27.70
54746;BMP180;40640;48.130;11.356;2023-06-22T06:38:57;95687.00;;;27.60
54746;BMP180;40640;48.130;11.356;2023-06-22T06:43:00;95682.00;;;27.80
54746;BMP180;40640;48.130;11.356;2023-06-22T06:47:03;95681.00;;;27.60
54746;BMP180;40640;48.130;11.356;2023-06-22T06:51:06;95673.00;;;27.50
54746;BMP180;40640;48.130;11.356;2023-06-22T06:55:12;95666.00;;;27.50
54746;BMP180;40640;48.130;11.356;2023-06-22T06:59:15;95681.00;;;27.50
54746;BMP180;40640;48.130;11.356;2023-06-22T07:03:18;95672.00;;;27.60
54746;BMP180;40640;48.130;11.356;2023-06-22T07:07:21;95669.00;;;27.70
54746;BMP180;40640;48.130;11.356;2023-06-22T07:11:25;95677.00;;;27.90
54746;BMP180;40640;48.130;11.356;2023-06-22T07:15:28;95680.00;;;28.00
54746;BMP180;40640;48.130;11.356;2023-06-22T07:19:32;95674.00;;;28.00
54746;BMP180;40640;48.130;11.356;2023-06-22T07:23:35;95675.00;;;28.00
54746;BMP180;40640;48.130;11.356;2023-06-22T07:27:44;95663.00;;;28.00
54746;BMP180;40640;48.130;11.356;2023-06-22T07:31:48;95667.00;;;28.20
54746;BMP180;40640;48.130;11.356;2023-06-22T07:35:53;95649.00;;;28.10
54746;BMP180;40640;48.130;11.356;2023-06-22T07:39:55;95651.00;;;28.30
54746;BMP180;40640;48.130;11.356;2023-06-22T07:44:02;95646.00;;;28.50
54746;BMP180;40640;48.130;11.356;2023-06-22T07:48:05;95649.00;;;28.70
54746;BMP180;40640;48.130;11.356;2023-06-22T07:52:08;95645.00;;;28.90
54746;BMP180;40640;48.130;11.356;2023-06-22T07:56:11;95638.00;;;29.20
54746;BMP180;40640;48.130;11.356;2023-06-22T08:00:16;95637.00;;;29.50
54746;BMP180;40640;48.130;11.356;2023-06-22T08:04:22;95634.00;;;29.80
54746;BMP180;40640;48.130;11.356;2023-06-22T08:08:26;95649.00;;;29.50
54746;BMP180;40640;48.130;11.356;2023-06-22T08:12:29;95639.00;;;29.60
54746;BMP180;40640;48.130;11.356;2023-06-22T08:16:33;95643.00;;;29.90
54746;BMP180;40640;48.130;11.356;2023-06-22T08:20:36;95639.00;;;30.30
54746;BMP180;40640;48.130;11.356;2023-06-22T08:24:39;95633.00;;;30.30
54746;BMP180;40640;48.130;11.356;2023-06-22T08:28:42;95630.00;;;30.20
54746;BMP180;40640;48.130;11.356;2023-06-22T08:32:46;95637.00;;;29.90
54746;BMP180;40640;48.130;11.356;2023-06-22T08:36:50;95640.00;;;29.90
54746;BMP180;40640;48.130;11.356;2023-06-22T08:40:53;95642.00;;;30.10
54746;BMP180;40640;48.130;11.356;2023-06-22T08:44:56;95638.00;;;30.10
54746;BMP180;40640;48.130;11.356;2023-06-22T08:49:00;95633.00;;;30.30
54746;BMP180;40640;48.130;11.356;2023-06-22T08:53:03;95636.00;;;30.20
54746;BMP180;40640;48.130;11.356;2023-06-22T08:57:06;95623.00;;;30.40
54746;BMP180;40640;48.130;11.356;2023-06-22T09:01:09;95631.00;;;30.70
54746;BMP180;40640;48.130;11.356;2023-06-22T09:05:13;95622.00;;;31.00
54746;BMP180;40640;48.130;11.356;2023-06-22T09:09:17;95627.00;;;31.00
54746;BMP180;40640;48.130;11.356;2023-06-22T09:13:20;95624.00;;;31.20
54746;BMP180;40640;48.130;11.356;2023-06-22T09:17:23;95622.00;;;31.40
54746;BMP180;40640;48.130;11.356;2023-06-22T09:21:28;95631.00;;;31.90
54746;BMP180;40640;48.130;11.356;2023-06-22T09:25:34;95618.00;;;32.00
54746;BMP180;40640;48.130;11.356;2023-06-22T09:29:37;95614.00;;;31.90
54746;BMP180;40640;48.130;11.356;2023-06-22T09:33:40;95619.00;;;31.70
54746;BMP180;40640;48.130;11.356;2023-06-22T09:37:45;95612.00;;;31.90
54746;BMP180;40640;48.130;11.356;2023-06-22T09:41:47;95620.00;;;32.00
54746;BMP180;40640;48.130;11.356;2023-06-22T09:45:51;95615.00;;;32.10
54746;BMP180;40640;48.130;11.356;2023-06-22T09:49:53;95606.00;;;32.20
54746;BMP180;40640;48.130;11.356;2023-06-22T09:53:58;95601.00;;;32.40
54746;BMP180;40640;48.130;11.356;2023-06-22T09:58:01;95591.00;;;32.50
54746;BMP180;40640;48.130;11.356;2023-06-22T10:02:05;95591.00;;;32.60
54746;BMP180;40640;48.130;11.356;2023-06-22T10:06:08;95587.00;;;32.60
54746;BMP180;40640;48.130;11.356;2023-06-22T10:10:13;95587.00;;;32.80
54746;BMP180;40640;48.130;11.356;2023-06-22T10:14:17;95589.00;;;32.80
54746;BMP180;40640;48.130;11.356;2023-06-22T10:18:20;95601.00;;;32.60
54746;BMP180;40640;48.130;11.356;2023-06-22T10:22:23;95588.00;;;32.80
54746;BMP180;40640;48.130;11.356;2023-06-22T10:26:27;95590.00;;;32.70
54746;BMP180;40640;48.130;11.356;2023-06-22T10:30:30;95591.00;;;32.80
54746;BMP180;40640;48.130;11.356;2023-06-22T10:34:34;95585.00;;;33.30
54746;BMP180;40640;48.130;11.356;2023-06-22T10:38:37;95574.00;;;33.50
54746;BMP180;40640;48.130;11.356;2023-06-22T10:42:41;95578.00;;;33.40
54746;BMP180;40640;48.130;11.356;2023-06-22T10:46:44;95553.00;;;33.90
54746;BMP180;40640;48.130;11.356;2023-06-22T10:50:48;95561.00;;;33.70
54746;BMP180;40640;48.130;11.356;2023-06-22T10:54:51;95560.00;;;33.30
54746;BMP180;40640;48.130;11.356;2023-06-22T10:58:56;95564.00;;;33.20
54746;BMP180;40640;48.130;11.356;2023-06-22T11:02:59;95560.00;;;33.20
54746;BMP180;40640;48.130;11.356;2023-06-22T11:07:02;95558.00;;;33.50
54746;BMP180;40640;48.130;11.356;2023-06-22T11:11:05;95561.00;;;33.60
54746;BMP180;40640;48.130;11.356;2023-06-22T11:15:10;95555.00;;;33.70
54746;BMP180;40640;48.130;11.356;2023-06-22T11:19:13;95557.00;;;34.00
54746;BMP180;40640;48.130;11.356;2023-06-22T11:23:15;95552.00;;;34.70
54746;BMP180;40640;48.130;11.356;2023-06-22T11:27:18;95544.00;;;34.60
54746;BMP180;40640;48.130;11.356;2023-06-22T11:31:23;95538.00;;;34.90
54746;BMP180;40640;48.130;11.356;2023-06-22T11:35:27;95539.00;;;34.90
54746;BMP180;40640;48.130;11.356;2023-06-22T11:39:30;95537.00;;;35.20
54746;BMP180;40640;48.130;11.356;2023-06-22T11:43:44;95535.00;;;35.40
54746;BMP180;40640;48.130;11.356;2023-06-22T11:47:49;95533.00;;;35.30
54746;BMP180;40640;48.130;11.356;2023-06-22T11:51:52;95531.00;;;35.30
54746;BMP180;40640;48.130;11.356;2023-06-22T11:55:55;95522.00;;;35.30
54746;BMP180;40640;48.130;11.356;2023-06-22T11:59:58;95520.00;;;35.30
54746;BMP180;40640;48.130;11.356;2023-06-22T12:04:02;95514.00;;;36.00
54746;BMP180;40640;48.130;11.356;2023-06-22T12:08:07;95513.00;;;36.40
54746;BMP180;40640;48.130;11.356;2023-06-22T12:12:10;95508.00;;;36.60
54746;BMP180;40640;48.130;11.356;2023-06-22T12:16:13;95497.00;;;36.80
54746;BMP180;40640;48.130;11.356;2023-06-22T12:20:17;95499.00;;;36.50
54746;BMP180;40640;48.130;11.356;2023-06-22T12:24:20;95505.00;;;36.90
54746;BMP180;40640;48.130;11.356;2023-06-22T12:28:23;95492.00;;;37.80
54746;BMP180;40640;48.130;11.356;2023-06-22T12:32:26;95487.00;;;37.30
54746;BMP180;40640;48.130;11.356;2023-06-22T12:36:30;95488.00;;;36.70
54746;BMP180;40640;48.130;11.356;2023-06-22T12:40:33;95486.00;;;36.50
54746;BMP180;40640;48.130;11.356;2023-06-22T12:44:40;95476.00;;;36.70
54746;BMP180;40640;48.130;11.356;2023-06-22T12:48:43;95477.00;;;36.70
54746;BMP180;40640;48.130;11.356;2023-06-22T12:52:47;95475.00;;;37.10
54746;BMP180;40640;48.130;11.356;2023-06-22T12:56:50;95476.00;;;37.00
54746;BMP180;40640;48.130;11.356;2023-06-22T13:00:56;95467.00;;;37.80
54746;BMP180;40640;48.130;11.356;2023-06-22T13:04:59;95471.00;;;37.40
54746;BMP180;40640;48.130;11.356;2023-06-22T13:09:03;95468.00;;;38.10
54746;BMP180;40640;48.130;11.356;2023-06-22T13:13:21;95467.00;;;38.60
54746;BMP180;40640;48.130;11.356;2023-06-22T13:17:26;95466.00;;;38.70
54746;BMP180;40640;48.130;11.356;2023-06-22T13:21:30;95471.00;;;38.40
54746;BMP180;40640;48.130;11.356;2023-06-22T13:25:34;95468.00;;;38.50
54746;BMP180;40640;48.130;11.356;2023-06-22T13:29:37;95471.00;;;38.30
54746;BMP180;40640;48.130;11.356;2023-06-22T13:33:40;95467.00;;;37.70
54746;BMP180;40640;48.130;11.356;2023-06-22T13:37:43;95471.00;;;37.30
54746;BMP180;40640;48.130;11.356;2023-06-22T13:41:47;95466.00;;;37.30
54746;BMP180;40640;48.130;11.356;2023-06-22T13:45:50;95474.00;;;37.00
54746;BMP180;40640;48.130;11.356;2023-06-22T13:49:53;95475.00;;;36.60
54746;BMP180;40640;48.130;11.356;2023-06-22T13:53:56;95478.00;;;36.30
54746;BMP180;40640;48.130;11.356;2023-06-22T13:58:01;95465.00;;;36.20
54746;BMP180;40640;48.130;11.356;2023-06-22T14:02:04;95465.00;;;36.20
54746;BMP180;40640;48.130;11.356;2023-06-22T14:06:07;95446.00;;;36.10
54746;BMP180;40640;48.130;11.356;2023-06-22T14:10:11;95450.00;;;36.00
54746;BMP180;40640;48.130;11.356;2023-06-22T14:14:15;95446.00;;;35.70
54746;BMP180;40640;48.130;11.356;2023-06-22T14:18:18;95449.00;;;35.70
54746;BMP180;40640;48.130;11.356;2023-06-22T14:22:22;95449.00;;;35.70
54746;BMP180;40640;48.130;11.356;2023-06-22T14:26:25;95439.00;;;35.60
54746;BMP180;40640;48.130;11.356;2023-06-22T14:30:29;95437.00;;;35.50
54746;BMP180;40640;48.130;11.356;2023-06-22T14:34:32;95443.00;;;35.50
54746;BMP180;40640;48.130;11.356;2023-06-22T14:38:37;95433.00;;;35.30
54746;BMP180;40640;48.130;11.356;2023-06-22T14:42:40;95435.00;;;35.40
54746;BMP180;40640;48.130;11.356;2023-06-22T14:46:44;95426.00;;;35.30
54746;BMP180;40640;48.130;11.356;2023-06-22T14:50:47;95425.00;;;35.30
54746;BMP180;40640;48.130;11.356;2023-06-22T14:54:50;95421.00;;;35.10
54746;BMP180;40640;48.130;11.356;2023-06-22T14:58:54;95414.00;;;35.20
54746;BMP180;40640;48.130;11.356;2023-06-22T15:02:59;95401.00;;;35.20
54746;BMP180;40640;48.130;11.356;2023-06-22T15:07:02;95396.00;;;35.10
54746;BMP180;40640;48.130;11.356;2023-06-22T15:11:05;95399.00;;;35.20
54746;BMP180;40640;48.130;11.356;2023-06-22T15:15:09;95400.00;;;34.90
54746;BMP180;40640;48.130;11.356;2023-06-22T15:19:13;95389.00;;;34.60
54746;BMP180;40640;48.130;11.356;2023-06-22T15:23:17;95387.00;;;34.60
54746;BMP180;40640;48.130;11.356;2023-06-22T15:27:19;95377.00;;;34.60
54746;BMP180;40640;48.130;11.356;2023-06-22T15:31:22;95367.00;;;34.60
54746;BMP180;40640;48.130;11.356;2023-06-22T15:35:27;95352.00;;;34.50
54746;BMP180;40640;48.130;11.356;2023-06-22T15:39:30;95342.00;;;34.50
54746;BMP180;40640;48.130;11.356;2023-06-22T15:43:33;95333.00;;;34.30
54746;BMP180;40640;48.130;11.356;2023-06-22T15:47:35;95334.00;;;34.30
54746;BMP180;40640;48.130;11.356;2023-06-22T15:51:40;95341.00;;;34.20
54746;BMP180;40640;48.130;11.356;2023-06-22T15:55:43;95350.00;;;34.20
54746;BMP180;40640;48.130;11.356;2023-06-22T15:59:48;95349.00;;;34.10
54746;BMP180;40640;48.130;11.356;2023-06-22T16:03:51;95346.00;;;34.00
54746;BMP180;40640;48.130;11.356;2023-06-22T16:07:56;95347.00;;;34.00
54746;BMP180;40640;48.130;11.356;2023-06-22T16:11:59;95360.00;;;34.00
54746;BMP180;40640;48.130;11.356;2023-06-22T16:16:03;95358.00;;;33.90
54746;BMP180;40640;48.130;11.356;2023-06-22T16:20:07;95350.00;;;33.80
54746;BMP180;40640;48.130;11.356;2023-06-22T16:24:13;95329.00;;;33.80
54746;BMP180;40640;48.130;11.356;2023-06-22T16:28:16;95314.00;;;33.70
54746;BMP180;40640;48.130;11.356;2023-06-22T16:32:18;95288.00;;;33.70
54746;BMP180;40640;48.130;11.356;2023-06-22T16:36:22;95241.00;;;33.50
54746;BMP180;40640;48.130;11.356;2023-06-22T16:40:27;95208.00;;;33.30
54746;BMP180;40640;48.130;11.356;2023-06-22T16:44:30;95204.00;;;33.00
54746;BMP180;40640;48.130;11.356;2023-06-22T16:48:33;95246.00;;;32.90
54746;BMP180;40640;48.130;11.356;2023-06-22T16:52:36;95326.00;;;32.60
54746;BMP180;40640;48.130;11.356;2023-06-22T16:56:41;95364.00;;;32.40
54746;BMP180;40640;48.130;11.356;2023-06-22T17:00:45;95402.00;;;31.80
54746;BMP180;40640;48.130;11.356;2023-06-22T17:04:48;95402.00;;;30.60
54746;BMP180;40640;48.130;11.356;2023-06-22T17:08:55;95383.00;;;28.90
54746;BMP180;40640;48.130;11.356;2023-06-22T17:13:02;95506.00;;;28.20
54746;BMP180;40640;48.130;11.356;2023-06-22T17:17:05;95708.00;;;28.90
54746;BMP180;40640;48.130;11.356;2023-06-22T17:21:11;95660.00;;;28.10
54746;BMP180;40640;48.130;11.356;2023-06-22T17:25:14;95604.00;;;25.20
54746;BMP180;40640;48.130;11.356;2023-06-22T17:29:18;95525.00;;;23.60
54746;BMP180;40640;48.130;11.356;2023-06-22T17:33:21;95500.00;;;23.70
54746;BMP180;40640;48.130;11.356;2023-06-22T17:37:24;95510.00;;;23.50
54746;BMP180;40640;48.130;11.356;2023-06-22T17:41:31;95521.00;;;23.60
54746;BMP180;40640;48.130;11.356;2023-06-22T17:45:41;95544.00;;;23.60
54746;BMP180;40640;48.130;11.356;2023-06-22T17:49:44;95449.00;;;23.50
54746;BMP180;40640;48.130;11.356;2023-06-22T17:53:47;95448.00;;;23.30
54746;BMP180;40640;48.130;11.356;2023-06-22T17:57:55;95434.00;;;23.30
54746;BMP180;40640;48.130;11.356;2023-06-22T18:02:07;95435.00;;;23.40
54746;BMP180;40640;48.130;11.356;2023-06-22T18:11:46;95476.00;;;23.80
54746;BMP180;40640;48.130;11.356;2023-06-22T18:15:49;95522.00;;;24.30
54746;BMP180;40640;48.130;11.356;2023-06-22T18:19:56;95537.00;;;23.90
54746;BMP180;40640;48.130;11.356;2023-06-22T18:24:01;95522.00;;;24.00
54746;BMP180;40640;48.130;11.356;2023-06-22T18:28:05;95295.00;;;23.50
54746;BMP180;40640;48.130;11.356;2023-06-22T18:32:09;95381.00;;;24.10
54746;BMP180;40640;48.130;11.356;2023-06-22T18:36:14;95432.00;;;24.10
54746;BMP180;40640;48.130;11.356;2023-06-22T18:40:19;95425.00;;;24.40
54746;BMP180;40640;48.130;11.356;2023-06-22T18:44:25;95448.00;;;24.30
54746;BMP180;40640;48.130;11.356;2023-06-22T18:48:28;95484.00;;;24.00
54746;BMP180;40640;48.130;11.356;2023-06-22T18:52:33;95472.00;;;23.90
54746;BMP180;40640;48.130;11.356;2023-06-22T18:56:51;95460.00;;;24.30
54746;BMP180;40640;48.130;11.356;2023-06-22T19:01:14;95465.00;;;23.90
54746;BMP180;40640;48.130;11.356;2023-06-22T19:05:18;95459.00;;;24.00
54746;BMP180;40640;48.130;11.356;2023-06-22T19:09:40;95471.00;;;23.90
54746;BMP180;40640;48.130;11.356;2023-06-22T19:13:46;95428.00;;;23.70
54746;BMP180;40640;48.130;11.356;2023-06-22T19:17:50;95428.00;;;23.60
54746;BMP180;40640;48.130;11.356;2023-06-22T19:21:58;95472.00;;;23.80
54746;BMP180;40640;48.130;11.356;2023-06-22T19:26:05;95465.00;;;24.10
54746;BMP180;40640;48.130;11.356;2023-06-22T19:30:10;95496.00;;;24.60
54746;BMP180;40640;48.130;11.356;2023-06-22T19:34:13;95511.00;;;24.60
54746;BMP180;40640;48.130;11.356;2023-06-22T19:38:16;95537.00;;;24.40
54746;BMP180;40640;48.130;11.356;2023-06-22T19:42:21;95524.00;;;23.90
54746;BMP180;40640;48.130;11.356;2023-06-22T19:46:28;95556.00;;;23.90
54746;BMP180;40640;48.130;11.356;2023-06-22T19:50:32;95567.00;;;23.70
54746;BMP180;40640;48.130;11.356;2023-06-22T19:54:38;95559.00;;;23.70
54746;BMP180;40640;48.130;11.356;2023-06-22T19:58:43;95520.00;;;23.70
54746;BMP180;40640;48.130;11.356;2023-06-22T20:02:49;95534.00;;;23.80
54746;BMP180;40640;48.130;11.356;2023-06-22T20:07:02;95515.00;;;23.80
54746;BMP180;40640;48.130;11.356;2023-06-22T20:11:06;95487.00;;;23.80
54746;BMP180;40640;48.130;11.356;2023-06-22T20:15:15;95547.00;;;23.90
54746;BMP180;40640;48.130;11.356;2023-06-22T20:19:18;95589.00;;;23.90
54746;BMP180;40640;48.130;11.356;2023-06-22T20:23:22;95608.00;;;23.80
54746;BMP180;40640;48.130;11.356;2023-06-22T20:27:25;95621.00;;;23.80
54746;BMP180;40640;48.130;11.356;2023-06-22T20:31:30;95599.00;;;23.70
54746;BMP180;40640;48.130;11.356;2023-06-22T20:35:34;95606.00;;;23.70
54746;BMP180;40640;48.130;11.356;2023-06-22T20:39:37;95634.00;;;23.60
54746;BMP180;40640;48.130;11.356;2023-06-22T20:43:40;95653.00;;;23.60
54746;BMP180;40640;48.130;11.356;2023-06-22T20:47:45;95634.00;;;23.60
54746;BMP180;40640;48.130;11.356;2023-06-22T20:51:48;95632.00;;;23.60
54746;BMP180;40640;48.130;11.356;2023-06-22T20:55:51;95639.00;;;23.50
54746;BMP180;40640;48.130;11.356;2023-06-22T20:59:53;95635.00;;;23.50
54746;BMP180;40640;48.130;11.356;2023-06-22T21:03:58;95600.00;;;23.40
54746;BMP180;40640;48.130;11.356;2023-06-22T21:08:01;95602.00;;;23.40
54746;BMP180;40640;48.130;11.356;2023-06-22T21:12:05;95587.00;;;23.30
54746;BMP180;40640;48.130;11.356;2023-06-22T21:16:10;95561.00;;;23.30
54746;BMP180;40640;48.130;11.356;2023-06-22T21:20:15;95555.00;;;23.10
54746;BMP180;40640;48.130;11.356;2023-06-22T21:24:18;95565.00;;;23.10
54746;BMP180;40640;48.130;11.356;2023-06-22T21:28:21;95601.00;;;23.10
54746;BMP180;40640;48.130;11.356;2023-06-22T21:32:24;95635.00;;;23.30
54746;BMP180;40640;48.130;11.356;2023-06-22T21:36:28;95639.00;;;23.20
54746;BMP180;40640;48.130;11.356;2023-06-22T21:40:31;95647.00;;;23.20
54746;BMP180;40640;48.130;11.356;2023-06-22T21:44:34;95674.00;;;23.30
54746;BMP180;40640;48.130;11.356;2023-06-22T21:48:37;95675.00;;;23.40
54746;BMP180;40640;48.130;11.356;2023-06-22T21:52:42;95682.00;;;23.30
54746;BMP180;40640;48.130;11.356;2023-06-22T21:56:45;95701.00;;;23.20
54746;BMP180;40640;48.130;11.356;2023-06-22T22:00:48;95690.00;;;23.10
54746;BMP180;40640;48.130;11.356;2023-06-22T22:04:51;95686.00;;;23.20
54746;BMP180;40640;48.130;11.356;2023-06-22T22:08:55;95686.00;;;23.10
54746;BMP180;40640;48.130;11.356;2023-06-22T22:12:58;95687.00;;;22.90
54746;BMP180;40640;48.130;11.356;2023-06-22T22:17:01;95681.00;;;22.90
54746;BMP180;40640;48.130;11.356;2023-06-22T22:21:04;95677.00;;;23.10
54746;BMP180;40640;48.130;11.356;2023-06-22T22:25:08;95693.00;;;23.00
54746;BMP180;40640;48.130;11.356;2023-06-22T22:29:11;95700.00;;;22.90
54746;BMP180;40640;48.130;11.356;2023-06-22T22:33:14;95703.00;;;22.70
54746;BMP180;40640;48.130;11.356;2023-06-22T22:37:17;95727.00;;;22.70
54746;BMP180;40640;48.130;11.356;2023-06-22T22:41:21;95747.00;;;22.70
54746;BMP180;40640;48.130;11.356;2023-06-22T22:45:25;95773.00;;;22.70
54746;BMP180;40640;48.130;11.356;2023-06-22T22:49:27;95781.00;;;22.40
54746;BMP180;40640;48.130;11.356;2023-06-22T22:53:30;95794.00;;;22.60
54746;BMP180;40640;48.130;11.356;2023-06-22T22:57:36;95799.00;;;22.50
54746;BMP180;40640;48.130;11.356;2023-06-22T23:01:39;95797.00;;;22.50
54746;BMP180;40640;48.130;11.356;2023-06-22T23:05:42;95800.00;;;22.60
54746;BMP180;40640;48.130;11.356;2023-06-22T23:09:45;95818.00;;;22.30
54746;BMP180;40640;48.130;11.356;2023-06-22T23:13:49;95813.00;;;22.40